Time;durP1;ratioP1;P1;durP2;ratioP2;P2;SDS_P1;SDS_P2;PMS_P1;PMS_P2;Temp;Humidity;BMP_temperature;BMP_pressure;BME280_temperature;BME280_humidity;BME280_pressure;Samples;Min_cycle;Max_cycle;Signal;HPM_P1;HPM_P2
2022/07/28 00:00:44;;;;;;;32.78;30.98;;;;;;;25.52;100.00;100515.59;4961911;28;20056;-84
2022/07/28 00:03:11;;;;;;;32.08;29.90;;;;;;;25.75;100.00;100497.34;4966656;28;20118;-83
2022/07/28 00:05:41;;;;;;;26.77;25.08;;;;;;;25.43;100.00;100512.03;4959636;28;20514;-83
2022/07/28 00:08:09;;;;;;;26.92;25.27;;;;;;;25.62;100.00;100513.72;4965757;28;20086;-82
2022/07/28 00:10:38;;;;;;;27.65;25.85;;;;;;;25.45;100.00;100514.44;4964466;28;20836;-84
2022/07/28 00:13:06;;;;;;;28.33;26.08;;;;;;;25.36;100.00;100520.63;4975915;28;20058;-85
2022/07/28 00:15:33;;;;;;;29.35;27.63;;;;;;;25.17;100.00;100532.78;4971121;28;20055;-82
2022/07/28 00:18:11;;;;;;;27.85;26.15;;;;;;;25.27;100.00;100538.00;4973831;28;20058;-82
2022/07/28 00:20:39;;;;;;;30.20;28.40;;;;;;;25.13;100.00;100536.13;4966339;28;20051;-83
2022/07/28 00:23:07;;;;;;;28.02;26.23;;;;;;;24.74;100.00;100541.34;4972568;28;20501;-82
2022/07/28 00:25:37;;;;;;;28.20;26.60;;;;;;;25.13;100.00;100541.56;4956246;28;20043;-83
2022/07/28 00:28:07;;;;;;;29.63;27.88;;;;;;;25.02;100.00;100534.72;4974132;28;20051;-82
2022/07/28 00:30:35;;;;;;;33.50;31.40;;;;;;;24.81;100.00;100528.13;4958956;28;20066;-83
2022/07/28 00:33:02;;;;;;;32.92;31.02;;;;;;;24.92;100.00;100534.94;4967744;28;20168;-84
2022/07/28 00:35:33;;;;;;;38.15;36.05;;;;;;;25.09;100.00;100535.09;4959422;28;20411;-83
2022/07/28 00:38:01;;;;;;;29.92;28.35;;;;;;;24.97;100.00;100537.56;4970451;28;20062;-83
2022/07/28 00:43:12;;;;;;;33.65;31.60;;;;;;;25.07;100.00;100547.38;4966183;28;20050;-82
2022/07/28 00:45:39;;;;;;;29.85;28.15;;;;;;;24.71;100.00;100548.19;4975777;28;20051;-83
2022/07/28 00:48:07;;;;;;;29.77;27.98;;;;;;;24.65;100.00;100552.13;4968668;28;20062;-82
2022/07/28 00:50:39;;;;;;;31.95;30.17;;;;;;;24.78;100.00;100556.72;4963143;28;20057;-85
2022/07/28 00:53:07;;;;;;;31.92;30.13;;;;;;;24.50;100.00;100557.88;4958763;28;20059;-83
2022/07/28 00:55:34;;;;;;;33.92;32.03;;;;;;;24.39;100.00;100549.91;4973977;28;20055;-82
2022/07/28 00:58:02;;;;;;;32.00;30.20;;;;;;;24.67;100.00;100553.41;4959450;28;20073;-82
2022/07/28 01:00:31;;;;;;;29.35;27.65;;;;;;;24.63;100.00;100555.16;4970809;28;20083;-82
2022/07/28 01:02:58;;;;;;;33.60;31.52;;;;;;;24.39;100.00;100562.69;4956431;28;20062;-86
2022/07/28 01:05:33;;;;;;;33.58;31.77;;;;;;;24.88;100.00;100563.84;4967099;28;20471;-85
2022/07/28 01:08:10;;;;;;;29.58;27.85;;;;;;;24.59;100.00;100564.19;4966979;28;20047;-84
2022/07/28 01:10:45;;;;;;;25.48;23.88;;;;;;;24.96;100.00;100567.75;4962897;28;20046;-82
2022/07/28 01:13:20;;;;;;;27.80;26.05;;;;;;;25.13;100.00;100565.22;4973428;28;20101;-82
2022/07/28 01:15:55;;;;;;;29.13;27.33;;;;;;;25.25;100.00;100551.06;4964724;28;20054;-83
2022/07/28 01:18:26;;;;;;;28.15;26.25;;;;;;;25.20;100.00;100559.34;4975525;28;20050;-83
2022/07/28 01:21:03;;;;;;;28.98;27.40;;;;;;;25.06;100.00;100562.09;4967973;28;20050;-82
2022/07/28 01:23:54;;;;;;;26.15;24.67;;;;;;;24.64;100.00;100567.59;4975295;28;20054;-83
2022/07/28 01:26:41;;;;;;;26.85;25.15;;;;;;;24.85;100.00;100567.19;4968748;28;20484;-84
2022/07/28 01:29:23;;;;;;;28.10;26.60;;;;;;;24.92;100.00;100567.56;4962930;28;20058;-84
2022/07/28 01:31:57;;;;;;;30.00;28.10;;;;;;;25.13;100.00;100552.41;4970296;28;20050;-84
2022/07/28 01:34:36;;;;;;;30.27;28.48;;;;;;;24.88;100.00;100558.41;4961220;28;20130;-83
2022/07/28 01:37:10;;;;;;;31.25;29.15;;;;;;;25.09;100.00;100556.84;4963067;28;20484;-84
2022/07/28 01:39:46;;;;;;;31.02;29.08;;;;;;;25.02;100.00;100559.16;4956306;28;20047;-84
2022/07/28 01:42:18;;;;;;;33.65;31.85;;;;;;;25.01;100.00;100554.06;4958163;28;20054;-84
2022/07/28 01:44:57;;;;;;;36.00;34.17;;;;;;;24.90;100.00;100559.72;4974237;28;20082;-82
2022/07/28 01:47:28;;;;;;;39.10;37.10;;;;;;;25.00;100.00;100553.25;4970341;28;20043;-84
2022/07/28 01:50:02;;;;;;;41.70;39.70;;;;;;;24.99;100.00;100556.25;4973287;28;20399;-84
2022/07/28 01:52:31;;;;;;;28.98;26.80;;;;;;;25.04;100.00;100553.44;4970148;28;20411;-83
2022/07/28 01:55:00;;;;;;;40.38;25.52;;;;;;;25.03;100.00;100554.56;4967956;28;20051;-85
2022/07/28 01:57:30;;;;;;;26.42;24.73;;;;;;;24.74;100.00;100553.00;4972905;28;20111;-84
2022/07/28 02:00:00;;;;;;;28.83;27.10;;;;;;;24.81;100.00;100558.84;4955815;28;20118;-84
2022/07/28 02:02:31;;;;;;;30.80;29.05;;;;;;;24.74;100.00;100561.16;5089828;23;20062;-82
2022/07/28 02:04:59;;;;;;;31.80;30.00;;;;;;;24.44;100.00;100557.16;4988052;28;20053;-84
2022/07/28 02:07:28;;;;;;;29.60;27.80;;;;;;;24.40;100.00;100569.72;4988549;28;20053;-83
2022/07/28 02:09:57;;;;;;;35.03;33.20;;;;;;;24.42;100.00;100581.09;4989041;28;20054;-83
2022/07/28 02:12:26;;;;;;;32.80;31.15;;;;;;;24.41;100.00;100568.59;4985736;28;20066;-84
2022/07/28 02:14:55;;;;;;;50.40;48.03;;;;;;;24.75;100.00;100580.94;4990455;28;20446;-84
2022/07/28 02:17:27;;;;;;;34.67;32.92;;;;;;;24.61;100.00;100575.56;4988062;28;20051;-85
2022/07/28 02:19:57;;;;;;;36.13;34.22;;;;;;;24.80;100.00;100567.28;4986933;28;20053;-85
2022/07/28 02:22:26;;;;;;;32.72;30.92;;;;;;;24.81;100.00;100580.56;4987708;28;20077;-85
2022/07/28 02:24:54;;;;;;;30.15;28.52;;;;;;;24.77;100.00;100576.03;4993056;28;20521;-85
2022/07/28 02:27:27;;;;;;;33.38;31.58;;;;;;;24.88;100.00;100575.50;4987241;28;20050;-85
2022/07/28 02:30:05;;;;;;;34.38;32.58;;;;;;;24.60;100.00;100571.22;4990876;28;20046;-82
2022/07/28 02:32:39;;;;;;;34.50;32.53;;;;;;;24.79;100.00;100565.69;4990913;28;20380;-86
2022/07/28 02:35:14;;;;;;;30.08;28.30;;;;;;;24.56;100.00;100567.50;4983388;28;20051;-85
2022/07/28 02:37:47;;;;;;;31.60;29.80;;;;;;;24.46;100.00;100571.25;4985565;28;20046;-82
2022/07/28 02:40:16;;;;;;;30.98;29.33;;;;;;;24.49;100.00;100583.41;4977886;28;20062;-82
2022/07/28 02:42:48;;;;;;;26.38;24.88;;;;;;;24.45;100.00;100578.59;4993003;28;20050;-83
2022/07/28 02:45:21;;;;;;;38.33;36.25;;;;;;;24.33;100.00;100596.44;4993807;28;20047;-83
2022/07/28 02:47:50;;;;;;;;;;;;;;;24.64;100.00;100592.03;4987754;28;20117;-83
2022/07/28 02:50:22;;;;;;;34.72;33.03;;;;;;;24.62;100.00;100601.59;4991375;28;19925;-84
2022/07/28 02:52:51;;;;;;;30.30;28.60;;;;;;;24.42;100.00;100610.97;4989056;28;20046;-84
2022/07/28 02:55:19;;;;;;;28.42;26.92;;;;;;;24.59;100.00;100602.19;4994926;28;20058;-83
2022/07/28 02:57:48;;;;;;;28.58;26.88;;;;;;;24.60;100.00;100614.66;4993925;28;20069;-83
2022/07/28 03:00:15;;;;;;;26.27;24.67;;;;;;;24.75;100.00;100610.81;4989754;28;20070;-84
2022/07/28 03:02:45;;;;;;;26.25;24.65;;;;;;;24.62;100.00;100620.59;4991111;28;20058;-83
2022/07/28 03:05:13;;;;;;;25.63;23.77;;;;;;;24.70;100.00;100617.19;4989888;28;20053;-82
2022/07/28 03:07:43;;;;;;;23.77;22.17;;;;;;;24.82;100.00;100613.97;4990267;28;20499;-82
2022/07/28 03:10:19;;;;;;;25.38;23.88;;;;;;;24.71;100.00;100626.94;4986510;28;20045;-83
2022/07/28 03:12:46;;;;;;;25.52;23.83;;;;;;;24.51;100.00;100624.59;4992780;28;20112;-85
2022/07/28 03:15:13;;;;;;;25.42;23.73;;;;;;;24.56;100.00;100619.88;4993856;28;20050;-85
2022/07/28 03:17:40;;;;;;;23.80;22.10;;;;;;;24.42;100.00;100632.69;4992198;28;20081;-82
2022/07/28 03:20:08;;;;;;;24.50;22.60;;;;;;;24.59;100.00;100629.34;4990585;28;20051;-84
2022/07/28 03:22:35;;;;;;;26.13;24.35;;;;;;;24.66;100.00;100630.56;4989312;28;20478;-83
2022/07/28 03:25:08;;;;;;;26.90;25.23;;;;;;;24.55;100.00;100637.28;4989021;28;20042;-82
2022/07/28 03:27:40;;;;;;;25.35;23.77;;;;;;;24.00;100.00;100639.91;4985835;28;20050;-84
2022/07/28 03:30:13;;;;;;;27.83;25.53;;;;;;;24.33;100.00;100634.44;4987297;28;20042;-82
2022/07/28 03:32:44;;;;;;;24.98;22.98;;;;;;;24.47;100.00;100640.69;4991711;28;20050;-82
2022/07/28 03:35:11;;;;;;;24.63;22.98;;;;;;;24.61;100.00;100643.44;4991377;28;20043;-82
2022/07/28 03:37:49;;;;;;;23.60;22.00;;;;;;;24.72;100.00;100644.03;4988408;28;20042;-83
2022/07/28 03:40:19;;;;;;;25.20;23.60;;;;;;;24.73;100.00;100645.66;4987608;28;20085;-84
2022/07/28 03:42:48;;;;;;;25.55;23.85;;;;;;;24.74;100.00;100656.19;4988319;28;20058;-83
2022/07/28 03:45:16;;;;;;;24.00;22.50;;;;;;;24.66;100.00;100648.75;4986425;28;20050;-84
2022/07/28 03:47:49;;;;;;;24.80;23.30;;;;;;;24.79;100.00;100656.09;4989277;28;20046;-83
2022/07/28 03:50:16;;;;;;;25.63;24.13;;;;;;;24.61;100.00;100654.28;4989995;28;20411;-86
2022/07/28 03:52:49;;;;;;;26.23;24.70;;;;;;;24.49;100.00;100665.66;4991940;28;20120;-82
2022/07/28 03:55:18;;;;;;;24.30;22.70;;;;;;;24.34;100.00;100674.03;4990341;28;20108;-84
2022/07/28 03:57:45;;;;;;;22.92;21.27;;;;;;;24.53;100.00;100671.28;4988232;28;20050;-82
2022/07/28 04:00:14;;;;;;;23.00;21.40;;;;;;;24.60;100.00;100671.66;4940980;28;20058;-82
2022/07/28 04:02:42;;;;;;;22.90;21.40;;;;;;;24.60;100.00;100675.22;4986361;28;20133;-82
2022/07/28 04:05:11;;;;;;;24.17;22.70;;;;;;;25.02;100.00;100667.84;4990304;28;20050;-80
2022/07/28 04:07:41;;;;;;;24.85;22.75;;;;;;;27.56;100.00;100669.72;4989452;28;20052;-83
2022/07/28 04:10:16;;;;;;;24.42;22.63;;;;;;;28.61;100.00;100677.72;4990635;28;20046;-88
2022/07/28 04:12:52;;;;;;;28.38;26.17;;;;;;;29.18;94.35;100683.53;4994889;28;20050;-85
2022/07/28 04:15:22;;;;;;;25.88;23.92;;;;;;;28.96;95.61;100692.81;4996518;28;20049;-86
2022/07/28 04:17:51;;;;;;;26.73;24.90;;;;;;;29.67;87.57;100688.50;4998023;28;20097;-85
2022/07/28 04:20:19;;;;;;;27.45;25.55;;;;;;;30.10;81.23;100696.28;4996512;28;20062;-88
2022/07/28 04:22:48;;;;;;;26.42;24.73;;;;;;;30.43;77.14;100698.19;4991780;28;20058;-85
2022/07/28 04:25:18;;;;;;;25.67;23.85;;;;;;;29.24;79.59;100708.75;4994245;28;20124;-84
2022/07/28 04:27:45;;;;;;;26.58;24.67;;;;;;;26.21;100.00;100702.16;4980955;28;20085;-83
2022/07/28 04:30:26;;;;;;;24.02;22.38;;;;;;;24.90;100.00;100716.44;4988777;28;20042;-84
2022/07/28 04:32:56;;;;;;;25.15;23.33;;;;;;;25.07;100.00;100716.63;4978294;28;20047;-83
2022/07/28 04:35:27;;;;;;;26.15;24.25;;;;;;;25.01;100.00;100723.28;4992129;28;20046;-84
2022/07/28 04:37:57;;;;;;;24.02;22.40;;;;;;;24.77;100.00;100723.47;4985463;28;20395;-83
2022/07/28 04:40:27;;;;;;;24.35;22.80;;;;;;;25.02;100.00;100721.38;4976373;28;20047;-84
2022/07/28 04:42:54;;;;;;;24.40;22.90;;;;;;;25.32;100.00;100717.25;4993592;28;20074;-84
2022/07/28 04:45:29;;;;;;;23.52;21.85;;;;;;;25.17;100.00;100728.44;4992394;28;20058;-83
2022/07/28 04:47:56;;;;;;;23.65;21.88;;;;;;;25.29;100.00;100734.16;4992414;28;20046;-83
2022/07/28 04:50:23;;;;;;;23.45;21.85;;;;;;;25.32;100.00;100734.34;4994866;28;20054;-82
2022/07/28 04:52:50;;;;;;;23.45;21.85;;;;;;;25.17;100.00;100742.81;4995318;28;20054;-83
2022/07/28 04:55:21;;;;;;;24.13;22.50;;;;;;;25.41;100.00;100745.31;4977686;28;20058;-83
2022/07/28 04:57:48;;;;;;;24.65;22.80;;;;;;;25.42;100.00;100743.38;4992202;28;20046;-83
2022/07/28 05:00:15;;;;;;;28.70;26.90;;;;;;;25.35;100.00;100735.66;4995394;28;20064;-83
2022/07/28 05:02:47;;;;;;;24.25;22.55;;;;;;;25.70;100.00;100738.72;4994654;28;20069;-83
2022/07/28 05:05:15;;;;;;;23.52;21.92;;;;;;;25.71;100.00;100743.03;4994492;28;20050;-82
2022/07/28 05:07:45;;;;;;;23.67;21.98;;;;;;;25.95;100.00;100746.31;4992981;28;20054;-83
2022/07/28 05:10:13;;;;;;;23.70;22.00;;;;;;;26.03;100.00;100750.22;4994728;28;20073;-83
2022/07/28 05:12:40;;;;;;;22.95;21.50;;;;;;;26.18;100.00;100747.13;4995688;28;20065;-83
2022/07/28 05:15:09;;;;;;;22.77;21.23;;;;;;;26.21;100.00;100743.78;4993613;28;20431;-83
2022/07/28 05:17:36;;;;;;;23.63;22.02;;;;;;;26.35;100.00;100737.44;4994198;28;20177;-82
2022/07/28 05:20:08;;;;;;;22.95;21.45;;;;;;;26.71;100.00;100738.13;4994228;28;20105;-84
2022/07/28 05:22:46;;;;;;;21.93;20.50;;;;;;;26.52;100.00;100734.06;4994465;28;20058;-84
2022/07/28 05:25:16;;;;;;;23.73;22.02;;;;;;;26.65;100.00;100750.28;4995233;28;20446;-83
2022/07/28 05:27:45;;;;;;;23.95;22.25;;;;;;;26.39;100.00;100749.34;4994850;28;20051;-83
2022/07/28 05:30:14;;;;;;;22.92;21.40;;;;;;;26.77;100.00;100757.88;4993360;28;20495;-83
2022/07/28 05:32:44;;;;;;;25.08;23.38;;;;;;;26.44;100.00;100757.34;4993910;28;20058;-84
2022/07/28 05:35:12;;;;;;;23.10;21.60;;;;;;;26.91;100.00;100760.50;4993850;28;20050;-83
2022/07/28 05:37:41;;;;;;;23.45;21.77;;;;;;;27.59;100.00;100764.53;4993878;28;20470;-82
2022/07/28 05:40:12;;;;;;;25.00;23.30;;;;;;;27.39;100.00;100771.41;4997208;28;20423;-82
2022/07/28 05:42:42;;;;;;;24.07;22.47;;;;;;;27.49;100.00;100764.84;4994539;28;20085;-83
2022/07/28 05:45:16;;;;;;;23.60;22.10;;;;;;;27.53;100.00;100773.19;4995359;28;20046;-84
2022/07/28 05:47:45;;;;;;;22.95;21.42;;;;;;;27.43;100.00;100773.50;4985786;28;20055;-83
2022/07/28 05:50:13;;;;;;;23.27;21.70;;;;;;;27.56;100.00;100784.28;4985923;28;20426;-84
2022/07/28 05:52:40;;;;;;;23.48;21.88;;;;;;;27.93;100.00;100778.53;4994601;28;20063;-84
2022/07/28 05:55:09;;;;;;;23.77;22.08;;;;;;;28.30;100.00;100768.91;4992360;28;20062;-84
2022/07/28 05:57:39;;;;;;;23.25;21.58;;;;;;;28.30;100.00;100779.81;4989196;28;20405;-84
2022/07/28 06:00:08;;;;;;;24.30;22.50;;;;;;;28.20;100.00;100778.22;4987323;28;20050;-84
2022/07/28 06:02:37;;;;;;;23.98;22.38;;;;;;;27.91;100.00;100772.63;4990700;28;20061;-84
2022/07/28 06:05:06;;;;;;;24.33;22.63;;;;;;;27.84;100.00;100779.38;4990246;28;20078;-85
2022/07/28 06:07:35;;;;;;;24.25;22.60;;;;;;;27.55;100.00;100792.78;4989329;28;20046;-84
2022/07/28 06:10:02;;;;;;;25.13;23.33;;;;;;;27.43;100.00;100793.41;4986893;28;20050;-82
2022/07/28 06:12:29;;;;;;;24.63;22.85;;;;;;;27.64;100.00;100797.13;4991342;28;20061;-82
2022/07/28 06:14:56;;;;;;;24.95;23.35;;;;;;;27.52;100.00;100794.22;4993705;28;20116;-82
2022/07/28 06:17:42;;;;;;;24.88;23.27;;;;;;;27.75;100.00;100792.19;4992268;28;20442;-83
2022/07/28 06:20:17;;;;;;;24.80;23.10;;;;;;;27.73;100.00;100788.16;4989966;28;20047;-82
2022/07/28 06:22:50;;;;;;;25.00;23.30;;;;;;;28.41;100.00;100788.50;4990248;28;20132;-83
2022/07/28 06:25:19;;;;;;;25.80;23.85;;;;;;;27.84;100.00;100784.03;4995222;28;20046;-83
2022/07/28 06:27:59;;;;;;;25.58;23.98;;;;;;;28.06;100.00;100793.97;4994212;28;20041;-83
2022/07/28 06:30:27;;;;;;;24.83;23.13;;;;;;;28.00;100.00;100798.78;4997531;28;20046;-84
2022/07/28 06:32:55;;;;;;;25.35;23.65;;;;;;;27.87;100.00;100802.50;4989038;28;20057;-86
2022/07/28 06:35:23;;;;;;;27.30;25.60;;;;;;;28.06;100.00;100799.44;4986975;28;20120;-83
2022/07/28 06:37:52;;;;;;;26.38;24.58;;;;;;;27.88;100.00;100792.38;4993072;28;20042;-83
2022/07/28 06:40:21;;;;;;;25.10;23.40;;;;;;;28.06;100.00;100794.78;4997512;28;20478;-83
2022/07/28 06:42:48;;;;;;;25.35;23.75;;;;;;;28.34;99.86;100793.63;4997146;28;20065;-83
2022/07/28 06:45:34;;;;;;;25.05;23.15;;;;;;;28.16;100.00;100804.56;4995034;28;20532;-83
2022/07/28 06:48:03;;;;;;;25.15;23.33;;;;;;;28.73;99.45;100790.66;4990206;28;20054;-84
2022/07/28 06:50:39;;;;;;;25.25;23.35;;;;;;;28.69;97.22;100797.13;4995810;28;20054;-84
2022/07/28 06:53:07;;;;;;;25.17;23.48;;;;;;;29.03;94.43;100800.88;4997275;28;20070;-84
2022/07/28 06:55:34;;;;;;;24.45;22.83;;;;;;;29.67;92.57;100806.16;4996602;28;20057;-84
2022/07/28 06:58:01;;;;;;;25.30;23.50;;;;;;;29.56;89.75;100803.00;4996363;28;20068;-84
2022/07/28 07:00:32;;;;;;;26.20;24.20;;;;;;;29.29;87.94;100807.03;4992098;28;20047;-83
2022/07/28 07:03:11;;;;;;;26.42;24.33;;;;;;;29.18;86.78;100811.25;4956521;29;20125;-85
2022/07/28 07:05:38;;;;;;;27.05;25.05;;;;;;;29.65;83.53;100808.44;4957225;28;20118;-82
2022/07/28 07:08:06;;;;;;;25.85;23.95;;;;;;;29.90;85.32;100810.19;4957936;29;20114;-83
2022/07/28 07:10:34;;;;;;;26.38;24.48;;;;;;;30.07;83.82;100806.47;4957882;29;20055;-84
2022/07/28 07:13:01;;;;;;;26.60;24.60;;;;;;;29.94;84.43;100815.78;4957100;29;20054;-82
2022/07/28 07:15:29;;;;;;;26.60;24.80;;;;;;;30.39;81.87;100812.34;4957902;28;20055;-83
2022/07/28 07:17:56;;;;;;;29.05;27.05;;;;;;;29.95;79.87;100819.31;4957930;29;20076;-84
2022/07/28 07:20:24;;;;;;;25.77;24.05;;;;;;;29.85;81.38;100820.53;4957698;29;20059;-83
2022/07/28 07:23:00;;;;;;;25.17;23.13;;;;;;;29.70;80.94;100827.38;4949597;29;20125;-83
2022/07/28 07:25:28;;;;;;;27.60;25.70;;;;;;;29.86;79.11;100825.66;4957875;28;20050;-84
2022/07/28 07:27:55;;;;;;;27.52;25.52;;;;;;;29.74;79.01;100830.25;4957313;28;20404;-83
2022/07/28 07:30:33;;;;;;;26.75;24.85;;;;;;;30.12;80.26;100830.13;4957703;29;20043;-83
2022/07/28 07:33:01;;;;;;;28.52;26.25;;;;;;;30.07;78.27;100824.84;4957017;28;20369;-83
2022/07/28 07:35:28;;;;;;;29.48;27.48;;;;;;;30.66;76.97;100821.91;4957057;29;20055;-83
2022/07/28 07:37:55;;;;;;;29.15;27.08;;;;;;;30.41;72.37;100840.22;4957196;29;20054;-83
2022/07/28 07:40:22;;;;;;;29.83;27.73;;;;;;;30.55;78.19;100826.22;4957996;29;20134;-84
2022/07/28 07:42:51;;;;;;;29.73;27.63;;;;;;;30.47;75.68;100827.09;4957034;28;20468;-83
2022/07/28 07:45:18;;;;;;;28.08;26.13;;;;;;;30.67;75.74;100830.94;4953526;29;20051;-82
2022/07/28 07:47:47;;;;;;;29.90;27.40;;;;;;;30.96;73.01;100821.75;4957729;28;20113;-82
2022/07/28 07:50:20;;;;;;;27.85;25.95;;;;;;;31.03;72.96;100824.72;4957658;28;20063;-84
2022/07/28 07:52:48;;;;;;;28.75;26.65;;;;;;;31.40;70.86;100828.28;4957573;28;20051;-82
2022/07/28 07:55:18;;;;;;;29.60;27.60;;;;;;;30.82;70.77;100827.56;4957672;28;20081;-83
2022/07/28 07:57:47;;;;;;;28.80;26.80;;;;;;;30.53;73.90;100823.00;4954138;28;20043;-84
2022/07/28 08:00:17;;;;;;;28.27;26.48;;;;;;;31.36;72.43;100823.84;4957326;29;20047;-83
2022/07/28 08:02:43;;;;;;;28.50;26.52;;;;;;;31.49;70.88;100826.22;4990617;28;20388;-85
2022/07/28 08:05:11;;;;;;;28.92;26.88;;;;;;;31.43;68.80;100819.38;4995703;28;20046;-83
2022/07/28 08:07:40;;;;;;;28.27;26.30;;;;;;;31.88;66.99;100826.59;4996044;28;20470;-82
2022/07/28 08:10:16;;;;;;;30.60;28.50;;;;;;;32.14;63.94;100820.72;4995957;28;20057;-85
2022/07/28 08:12:43;;;;;;;29.55;27.55;;;;;;;31.43;66.70;100822.09;4995258;28;20078;-84
2022/07/28 08:15:18;;;;;;;30.70;28.50;;;;;;;31.32;68.90;100829.19;4988983;28;20056;-84
2022/07/28 08:17:46;;;;;;;30.00;27.88;;;;;;;31.30;71.90;100817.75;4992362;28;20039;-84
2022/07/28 08:20:14;;;;;;;29.35;27.52;;;;;;;31.91;66.81;100828.69;4995117;28;20054;-84
2022/07/28 08:22:49;;;;;;;28.15;26.45;;;;;;;32.50;66.19;100824.47;4995653;28;20050;-84
2022/07/28 08:25:18;;;;;;;28.65;26.75;;;;;;;31.85;66.88;100838.28;4994215;28;20065;-84
2022/07/28 08:27:45;;;;;;;29.00;27.17;;;;;;;32.32;63.11;100823.16;4991872;28;20042;-82
2022/07/28 08:30:13;;;;;;;27.20;25.30;;;;;;;32.02;64.55;100828.22;4985926;28;20475;-88
2022/07/28 08:33:01;;;;;;;31.38;29.15;;;;;;;30.12;76.69;100830.94;4988522;28;20430;-85
2022/07/28 08:35:46;;;;;;;28.02;26.02;;;;;;;31.27;75.00;100826.69;4988860;28;20125;-86
2022/07/28 08:38:16;;;;;;;28.48;26.38;;;;;;;31.62;67.81;100828.94;4993874;28;20061;-85
2022/07/28 08:40:49;;;;;;;27.35;25.38;;;;;;;31.57;65.50;100829.19;4993529;28;20062;-87
2022/07/28 08:43:33;;;;;;;28.08;26.10;;;;;;;31.15;73.29;100827.47;4994351;28;20065;-84
2022/07/28 08:46:05;;;;;;;28.50;26.15;;;;;;;30.60;72.48;100827.94;4992166;28;20066;-86
2022/07/28 08:48:38;;;;;;;;;;;;;;;31.96;68.86;100829.59;4976858;28;20060;-85
2022/07/28 08:51:10;;;;;;;27.50;25.52;;;;;;;32.81;64.61;100833.91;4976182;28;19976;-85
2022/07/28 08:53:38;;;;;;;29.50;26.93;;;;;;;32.88;62.70;100831.31;4994403;28;20061;-84
2022/07/28 08:56:07;;;;;;;27.77;25.88;;;;;;;32.37;62.47;100831.94;4993324;28;20046;-85
2022/07/28 08:58:42;;;;;;;29.50;27.50;;;;;;;33.35;60.12;100833.28;4995359;28;20459;-87
2022/07/28 09:01:26;;;;;;;29.23;26.95;;;;;;;34.24;55.62;100828.13;5237454;23;20026;-86
2022/07/28 09:04:01;;;;;;;28.30;26.30;;;;;;;33.59;54.30;100829.53;4920071;29;20059;-84
2022/07/28 09:06:40;;;;;;;29.60;27.27;;;;;;;33.87;52.87;100828.53;4930360;29;20127;-84
2022/07/28 09:09:10;;;;;;;30.23;28.00;;;;;;;34.07;53.89;100824.66;4918298;29;20487;-86
2022/07/28 09:11:45;;;;;;;30.60;28.38;;;;;;;33.97;55.43;100823.25;4918475;29;20048;-86
2022/07/28 09:14:12;;;;;;;29.75;27.65;;;;;;;33.28;55.95;100819.34;4925876;29;20048;-86
2022/07/28 09:16:42;;;;;;;29.90;27.70;;;;;;;33.87;54.36;100817.53;4917674;29;20477;-85
2022/07/28 09:19:14;;;;;;;30.80;28.30;;;;;;;34.05;52.03;100818.72;4930287;29;20055;-86
2022/07/28 09:21:45;;;;;;;29.05;26.95;;;;;;;32.19;56.05;100807.88;4919962;29;20052;-86
2022/07/28 09:37:58;;;;;;;29.02;26.92;;;;;;;33.87;53.47;100812.81;4826374;29;20082;-85
2022/07/28 09:44:28;;;;;;;31.17;28.98;;;;;;;34.01;52.68;100814.25;4874541;29;20056;-86
2022/07/28 09:47:21;;;;;;;29.60;27.42;;;;;;;33.42;53.26;100816.13;4876577;29;20061;-86
2022/07/28 09:50:04;;;;;;;31.38;29.20;;;;;;;33.14;56.16;100814.31;4879265;29;20149;-85
2022/07/28 09:52:38;;;;;;;29.52;27.52;;;;;;;34.24;53.25;100817.09;4880359;29;20049;-87
2022/07/28 09:55:13;;;;;;;28.17;26.38;;;;;;;34.15;52.59;100820.88;4880486;29;20061;-86
2022/07/28 09:57:49;;;;;;;29.92;27.92;;;;;;;33.70;51.77;100822.28;4880672;29;20515;-86
2022/07/28 10:00:33;;;;;;;29.17;27.08;;;;;;;34.74;49.33;100818.03;4882311;29;20052;-87
2022/07/28 10:03:00;;;;;;;30.40;28.27;;;;;;;34.16;53.30;100821.66;4863736;29;20114;-86
2022/07/28 10:05:40;;;;;;;30.23;28.13;;;;;;;33.76;56.02;100828.31;4888308;29;20071;-85
2022/07/28 10:08:11;;;;;;;30.08;27.90;;;;;;;35.06;53.26;100819.38;4902253;29;20048;-86
2022/07/28 10:10:41;;;;;;;28.92;27.02;;;;;;;34.40;55.43;100824.13;4901377;29;20053;-85
2022/07/28 10:13:10;;;;;;;29.08;27.20;;;;;;;35.18;54.42;100817.59;4886592;29;20064;-86
2022/07/28 10:16:12;;;;;;;30.23;28.13;;;;;;;34.72;53.93;100814.84;4858984;28;20067;-85
2022/07/28 10:18:40;;;;;;;30.00;27.80;;;;;;;33.53;63.13;100825.47;4846430;29;20477;-85
2022/07/28 10:21:10;;;;;;;31.77;29.67;;;;;;;32.86;72.94;100817.13;4903233;29;20052;-86
2022/07/28 10:23:38;;;;;;;29.02;27.02;;;;;;;33.96;65.19;100818.91;4896773;29;20117;-84
2022/07/28 10:26:07;;;;;;;31.00;29.00;;;;;;;33.91;64.74;100821.94;4901224;29;20080;-86
2022/07/28 10:28:39;;;;;;;29.60;27.67;;;;;;;34.85;60.24;100819.00;4831206;28;20060;-86
2022/07/28 10:31:23;;;;;;;28.08;26.17;;;;;;;34.22;58.84;100813.91;4860414;29;20060;-86
2022/07/28 10:33:53;;;;;;;28.75;26.85;;;;;;;35.38;56.11;100812.75;4904575;29;20057;-85
2022/07/28 10:36:24;;;;;;;28.58;26.77;;;;;;;36.03;54.41;100804.19;4904886;29;20100;-88
2022/07/28 10:39:12;;;;;;;28.13;26.42;;;;;;;36.21;53.75;100796.88;4902435;29;20053;-87
2022/07/28 10:41:51;;;;;;;29.30;27.45;;;;;;;36.08;54.55;100795.56;4899534;29;20057;-88
2022/07/28 10:44:21;;;;;;;29.77;27.88;;;;;;;35.71;54.57;100803.78;4902378;29;20044;-87
2022/07/28 10:46:51;;;;;;;28.25;26.35;;;;;;;36.00;52.77;100794.63;4902167;29;20134;-86
2022/07/28 10:49:28;;;;;;;28.45;26.58;;;;;;;36.59;51.69;100791.34;4891573;29;20455;-86
2022/07/28 10:52:01;;;;;;;27.75;25.90;;;;;;;36.66;52.48;100794.97;4917070;29;20401;-85
2022/07/28 10:54:34;;;;;;;27.48;25.38;;;;;;;36.78;50.46;100795.84;4902412;29;20059;-83
2022/07/28 10:57:05;;;;;;;28.50;26.55;;;;;;;35.96;48.92;100795.78;4900407;29;20049;-86
2022/07/28 11:00:05;;;;;;;29.20;27.08;;;;;;;36.56;51.65;100790.13;4899812;29;20053;-86
2022/07/28 11:02:52;;;;;;;28.65;26.65;;;;;;;35.60;53.20;100791.78;4894461;29;20104;-86
2022/07/28 11:05:33;;;;;;;30.40;28.10;;;;;;;36.39;51.61;100788.75;4896389;29;20049;-86
2022/07/28 11:08:02;;;;;;;28.75;26.85;;;;;;;37.24;46.62;100789.88;4898641;29;20063;-84
2022/07/28 11:10:30;;;;;;;28.15;26.23;;;;;;;36.66;49.08;100783.09;4901473;29;20438;-86
2022/07/28 11:12:59;;;;;;;26.27;24.40;;;;;;;35.74;53.70;100791.97;4901704;29;20056;-87
2022/07/28 11:15:34;;;;;;;27.83;25.92;;;;;;;36.18;49.93;100786.56;4901806;29;20059;-86
2022/07/28 11:18:10;;;;;;;28.35;26.42;;;;;;;36.03;49.76;100784.81;4901392;29;20044;-85
2022/07/28 11:21:06;;;;;;;27.48;25.50;;;;;;;35.18;49.61;100778.94;4898030;29;20058;-85
2022/07/28 11:23:54;;;;;;;27.75;25.67;;;;;;;36.07;51.79;100780.16;4901187;29;20088;-85
2022/07/28 11:26:44;;;;;;;28.05;26.23;;;;;;;35.79;49.35;100788.88;4897627;29;20052;-85
2022/07/28 11:29:45;;;;;;;29.38;27.33;;;;;;;35.94;51.00;100785.09;4885985;29;20044;-87
2022/07/28 11:32:13;;;;;;;28.85;26.88;;;;;;;36.65;50.56;100789.81;4907349;29;20425;-85
2022/07/28 11:35:14;;;;;;;29.33;27.33;;;;;;;36.72;48.76;100789.09;4901632;29;20049;-88
2022/07/28 11:40:54;;;;;;;27.55;25.55;;;;;;;36.47;48.97;100779.34;4901253;29;20301;-85
2022/07/28 11:43:33;;;;;;;29.50;27.60;;;;;;;36.94;46.49;100779.75;4888193;29;20128;-85
2022/07/28 11:46:38;;;;;;;29.15;27.20;;;;;;;36.52;49.39;100781.00;4900010;29;20052;-86
2022/07/28 11:49:20;;;;;;;28.98;26.92;;;;;;;37.21;46.98;100772.06;4900150;29;20081;-85